Terminal Aerodrome Forecast
Issued by NWS

Home | Current Version | Previous Version | Text Only | Print | Product List | Glossary On
Versions: 1 2 3 4 5 6 7 8 9 10 11 12 13 14 15 16 17 18 19 20
175
FTUS43 KEAX 242336
TAFMKC
TAF
KMKC 242336Z 2500/2524 17006KT P6SM SCT130
     FM250600 16009KT P6SM -SHRA VCTS SCT060CB OVC090
      TEMPO 2509/2512 3SM TSRA BKN025CB
     FM251400 15011KT P6SM VCSH BKN015
     FM251900 16011KT P6SM VCSH BKN035=

USA.gov is the U.S. government's official web portal to all federal, state and local government web resources and services.